Terminal Aerodrome Forecast
Issued by NWS Omaha/Valley, NE

Home | Current Version | Previous Version | Text Only | Print | Product List | Glossary Off
Versions: 1 2 3 4 5 6 7 8 9 10 11 12 13 14 15 16 17 18 19 20

000
FTUS43 KOAX 260402 AAA
TAFOFK
TAF AMD
KOFK 260402Z 2604/2624 23007KT P6SM BKN150
      TEMPO 2605/2607 VRB15KT 5SM TSRA BKN040CB
     FM261000 VRB03KT P6SM BKN150
     FM261700 09008KT P6SM SCT250 PROB30 2618/2621 P6SM TSRA
      BKN040CB=

USA.gov is the U.S. government's official web portal to all federal, state and local government web resources and services.